Time;durP1;ratioP1;P1;durP2;ratioP2;P2;SDS_P1;SDS_P2;PMS_P1;PMS_P2;Temp;Humidity;BMP_temperature;BMP_pressure;BME280_temperature;BME280_humidity;BME280_pressure;Samples;Min_cycle;Max_cycle;Signal;HPM_P1;HPM_P2
2022/01/09 00:02:06;;;;;;;61.42;38.53;;;;;;;;;;6271003;22;20000;-79
2022/01/09 00:04:51;;;;;;;54.22;35.63;;;;;;;;;;6299040;22;19995;-79
2022/01/09 00:07:25;;;;;;;57.63;36.17;;;;;;;;;;6273100;22;20004;-78
2022/01/09 00:09:56;;;;;;;54.67;34.50;;;;;;;;;;6294236;22;20008;-78
2022/01/09 00:12:28;;;;;;;58.78;36.90;;;;;;;;;;6286137;22;20004;-78
2022/01/09 00:14:57;;;;;;;52.50;34.85;;;;;;;;;;6258895;22;20000;-78
2022/01/09 00:17:40;;;;;;;61.47;35.53;;;;;;;;;;6268617;22;20004;-79
2022/01/09 00:20:30;;;;;;;59.50;37.47;;;;;;;;;;6295565;22;20019;-79
2022/01/09 00:23:00;;;;;;;56.10;35.53;;;;;;;;;;6199790;23;20056;-79
2022/01/09 00:25:28;;;;;;;51.55;34.53;;;;;;;;;;6196961;23;20271;-78
2022/01/09 00:28:01;;;;;;;54.35;34.90;;;;;;;;;;6200862;23;20005;-79
2022/01/09 00:30:51;;;;;;;51.65;33.10;;;;;;;;;;6177980;23;19989;-79
2022/01/09 00:33:50;;;;;;;51.67;34.30;;;;;;;;;;6172531;23;20013;-79
2022/01/09 00:36:41;;;;;;;57.70;35.78;;;;;;;;;;6176060;23;20005;-79
2022/01/09 00:39:17;;;;;;;55.58;34.75;;;;;;;;;;6168917;23;20028;-79
2022/01/09 00:41:55;;;;;;;52.75;34.40;;;;;;;;;;6164433;23;20024;-79
2022/01/09 00:44:32;;;;;;;55.63;34.05;;;;;;;;;;6174148;23;20016;-79
2022/01/09 00:47:00;;;;;;;52.45;33.97;;;;;;;;;;6174098;23;20017;-78
2022/01/09 00:49:51;;;;;;;53.42;33.65;;;;;;;;;;6151442;23;20005;-78
2022/01/09 00:52:23;;;;;;;57.97;34.72;;;;;;;;;;6171909;23;20033;-78
2022/01/09 00:54:49;;;;;;;56.00;35.10;;;;;;;;;;6264730;22;20020;-75
2022/01/09 00:57:15;;;;;;;53.45;33.88;;;;;;;;;;6229901;22;20012;-76
2022/01/09 00:59:41;;;;;;;51.72;33.17;;;;;;;;;;6288411;22;20010;-74
2022/01/09 01:02:07;;;;;;;50.28;32.03;;;;;;;;;;6287459;22;20027;-78
2022/01/09 01:04:38;;;;;;;48.88;32.50;;;;;;;;;;6256924;22;20004;-74
2022/01/09 01:07:04;;;;;;;54.40;33.33;;;;;;;;;;6290813;22;20000;-77
2022/01/09 01:09:47;;;;;;;55.03;32.75;;;;;;;;;;6293336;22;20019;-78
2022/01/09 01:17:47;;;;;;;52.05;31.38;;;;;;;;;;6271981;22;20034;-78
2022/01/09 01:21:08;;;;;;;;;;;;;;;;;;;;;
2022/01/09 01:27:19;;;;;;;57.53;33.03;;;;;;;;;;6111989;23;20002;-78
2022/01/09 01:30:07;;;;;;;;;;;;;;;;;;;;;
2022/01/09 01:33:05;;;;;;;51.20;31.50;;;;;;;;;;6295188;22;20010;-78
2022/01/09 01:36:10;;;;;;;51.33;30.42;;;;;;;;;;6298077;22;20026;-79
2022/01/09 01:39:15;;;;;;;55.22;32.63;;;;;;;;;;6269397;22;20016;-78
2022/01/09 01:42:35;;;;;;;45.67;29.30;;;;;;;;;;6266008;23;20068;-79
2022/01/09 01:45:39;;;;;;;44.70;28.30;;;;;;;;;;6147826;23;20006;-78
2022/01/09 01:48:32;;;;;;;45.15;29.33;;;;;;;;;;6101890;23;20001;-79
2022/01/09 01:51:41;;;;;;;;;;;;;;;;;;;;;
2022/01/09 01:54:49;;;;;;;;;;;;;;;;;;;;;
2022/01/09 02:01:00;;;;;;;48.65;30.48;;;;;;;;;;5940623;24;20001;-78
2022/01/09 02:04:15;;;;;;;;;;;;;;;;;;;;;
2022/01/09 02:07:19;;;;;;;46.00;29.88;;;;;;;;;;5917983;23;20012;-78
2022/01/09 02:10:23;;;;;;;37.47;24.43;;;;;;;;;;5952077;24;20008;-78
2022/01/09 02:13:26;;;;;;;48.63;31.60;;;;;;;;;;5907997;24;20013;-78
2022/01/09 02:16:05;;;;;;;45.05;29.20;;;;;;;;;;5949898;24;20456;-78
2022/01/09 02:22:42;;;;;;;44.75;29.25;;;;;;;;;;5959622;24;20016;-78
2022/01/09 02:25:13;;;;;;;46.90;29.33;;;;;;;;;;5970410;24;20016;-78
2022/01/09 02:28:08;;;;;;;44.38;29.25;;;;;;;;;;5943733;24;20012;-78
2022/01/09 02:30:43;;;;;;;44.15;28.50;;;;;;;;;;5999434;23;20050;-77
2022/01/09 02:36:42;;;;;;;47.20;30.55;;;;;;;;;;6085258;23;20074;-78
2022/01/09 02:40:05;;;;;;;;;;;;;;;;;;;;;
2022/01/09 02:43:13;;;;;;;52.88;33.05;;;;;;;;;;6123016;23;20006;-79
2022/01/09 02:49:28;;;;;;;60.72;35.85;;;;;;;;;;5976197;23;20005;-78
2022/01/09 02:52:48;;;;;;;56.33;32.60;;;;;;;;;;5866854;24;20022;-78
2022/01/09 02:58:44;;;;;;;49.17;29.92;;;;;;;;;;5839155;24;20033;-79
2022/01/09 03:01:38;;;;;;;52.65;32.63;;;;;;;;;;6231772;23;20044;-78
2022/01/09 03:04:16;;;;;;;55.00;33.15;;;;;;;;;;6236904;23;20023;-79
2022/01/09 03:07:07;;;;;;;58.13;34.20;;;;;;;;;;6209498;23;20021;-78
2022/01/09 03:09:45;;;;;;;57.13;33.42;;;;;;;;;;6234949;23;20016;-79
2022/01/09 03:12:33;;;;;;;57.45;34.83;;;;;;;;;;6239115;23;20001;-81
2022/01/09 03:15:52;;;;;;;57.78;34.28;;;;;;;;;;6234764;23;20312;-80
2022/01/09 03:18:27;;;;;;;59.88;36.70;;;;;;;;;;6224390;23;20052;-80
2022/01/09 03:21:20;;;;;;;61.83;35.35;;;;;;;;;;6233011;23;19989;-78
2022/01/09 03:24:00;;;;;;;62.58;36.33;;;;;;;;;;6174747;23;20024;-82
2022/01/09 03:26:51;;;;;;;65.00;37.22;;;;;;;;;;6147899;23;20482;-79
2022/01/09 03:29:28;;;;;;;68.40;38.83;;;;;;;;;;6148136;23;20009;-80
2022/01/09 03:32:02;;;;;;;74.30;41.08;;;;;;;;;;6147817;23;19990;-78
2022/01/09 03:34:34;;;;;;;58.80;35.50;;;;;;;;;;6147761;23;19994;-77
2022/01/09 03:37:20;;;;;;;52.85;31.67;;;;;;;;;;6165170;23;20016;-80
2022/01/09 03:40:03;;;;;;;55.97;33.90;;;;;;;;;;6147146;23;20033;-79
2022/01/09 03:42:41;;;;;;;54.72;33.05;;;;;;;;;;6144514;23;20033;-78
2022/01/09 03:45:16;;;;;;;47.47;30.52;;;;;;;;;;6146062;23;20015;-80
2022/01/09 03:47:53;;;;;;;53.20;32.13;;;;;;;;;;6174031;23;20005;-79
2022/01/09 03:50:42;;;;;;;58.67;34.85;;;;;;;;;;6147359;23;20072;-78
2022/01/09 03:53:17;;;;;;;51.60;32.08;;;;;;;;;;6147274;23;19993;-75
2022/01/09 03:56:15;;;;;;;51.88;29.75;;;;;;;;;;6200104;23;19993;-76
2022/01/09 03:58:41;;;;;;;50.05;29.00;;;;;;;;;;6203753;23;20012;-77
2022/01/09 04:01:21;;;;;;;46.10;28.17;;;;;;;;;;6220511;23;20024;-77
2022/01/09 04:03:54;;;;;;;40.40;26.58;;;;;;;;;;6238137;23;19988;-77
2022/01/09 04:07:15;;;;;;;48.03;27.70;;;;;;;;;;6265031;22;20034;-78
2022/01/09 04:13:35;;;;;;;43.35;26.75;;;;;;;;;;5976733;24;20056;-78
2022/01/09 04:16:29;;;;;;;44.78;26.33;;;;;;;;;;5977484;23;20052;-78
2022/01/09 04:19:25;;;;;;;65.72;39.03;;;;;;;;;;5975005;24;20068;-77
2022/01/09 04:22:44;;;;;;;50.78;29.80;;;;;;;;;;5967312;24;20020;-77
2022/01/09 04:25:18;;;;;;;45.20;26.77;;;;;;;;;;5940516;24;20017;-77
2022/01/09 04:28:03;;;;;;;41.40;26.23;;;;;;;;;;5938722;24;20148;-77
2022/01/09 04:30:36;;;;;;;40.15;26.00;;;;;;;;;;5917352;24;20045;-77
2022/01/09 04:33:17;;;;;;;40.88;25.80;;;;;;;;;;5920124;24;20013;-77
2022/01/09 04:36:09;;;;;;;42.10;26.60;;;;;;;;;;5918361;24;19989;-78
2022/01/09 04:39:18;;;;;;;39.03;25.42;;;;;;;;;;5922870;24;20065;-77
2022/01/09 04:41:43;;;;;;;40.38;24.10;;;;;;;;;;5939475;24;19993;-77
2022/01/09 04:44:12;;;;;;;42.03;24.38;;;;;;;;;;6040882;23;20007;-77
2022/01/09 04:46:48;;;;;;;40.88;25.25;;;;;;;;;;6161991;23;20024;-76
2022/01/09 04:49:38;;;;;;;40.33;25.10;;;;;;;;;;6219916;23;20430;-77
2022/01/09 04:52:38;;;;;;;36.38;23.85;;;;;;;;;;6231619;23;19998;-73
2022/01/09 04:55:29;;;;;;;;;;;;;;;;;;;;;
2022/01/09 04:58:03;;;;;;;34.25;22.05;;;;;;;;;;6132620;23;20017;-78
2022/01/09 05:01:03;;;;;;;33.40;21.73;;;;;;;;;;6168429;23;20014;-78
2022/01/09 05:03:48;;;;;;;32.22;21.38;;;;;;;;;;6174901;23;20021;-78
2022/01/09 05:06:35;;;;;;;33.42;21.48;;;;;;;;;;6148480;23;20005;-78
2022/01/09 05:09:07;;;;;;;34.70;22.42;;;;;;;;;;6169095;23;20014;-77
2022/01/09 05:12:19;;;;;;;;;;;;;;;;;;;;;
2022/01/09 05:15:22;;;;;;;38.67;23.13;;;;;;;;;;6030009;23;20008;-77
2022/01/09 05:18:18;;;;;;;37.65;23.98;;;;;;;;;;6006289;23;20012;-77
2022/01/09 05:21:00;;;;;;;37.97;23.13;;;;;;;;;;5998450;23;20008;-78
2022/01/09 05:23:50;;;;;;;33.38;22.13;;;;;;;;;;5965421;24;20046;-78
2022/01/09 05:26:54;;;;;;;35.63;22.42;;;;;;;;;;5988092;24;20020;-78
2022/01/09 05:29:50;;;;;;;32.45;21.20;;;;;;;;;;5996212;24;20016;-78
2022/01/09 05:32:37;;;;;;;;;;;;;;;;;;;;;
2022/01/09 05:35:12;;;;;;;32.42;21.38;;;;;;;;;;5997779;23;20028;-78
2022/01/09 05:37:51;;;;;;;31.92;20.67;;;;;;;;;;5996354;23;20050;-78
2022/01/09 05:40:44;;;;;;;35.08;22.38;;;;;;;;;;5996067;24;20015;-77
2022/01/09 05:43:11;;;;;;;35.40;21.63;;;;;;;;;;5996484;23;20031;-78
2022/01/09 05:45:43;;;;;;;32.75;21.60;;;;;;;;;;5998199;23;20000;-77
2022/01/09 05:51:24;;;;;;;34.05;21.95;;;;;;;;;;6087416;23;20091;-80
2022/01/09 05:54:00;;;;;;;32.20;21.35;;;;;;;;;;6096624;23;20010;-76
2022/01/09 05:56:58;;;;;;;39.00;24.52;;;;;;;;;;6114312;23;20138;-77
2022/01/09 05:59:34;;;;;;;35.28;23.00;;;;;;;;;;6104323;23;20013;-77
2022/01/09 06:02:16;;;;;;;35.38;23.08;;;;;;;;;;6110553;23;20065;-76
2022/01/09 06:04:45;;;;;;;32.00;21.40;;;;;;;;;;6088283;23;20007;-77
2022/01/09 06:07:17;;;;;;;34.85;22.52;;;;;;;;;;6085813;23;20009;-75
2022/01/09 06:09:44;;;;;;;33.42;22.23;;;;;;;;;;6108276;23;20117;-74
2022/01/09 06:12:10;;;;;;;33.55;22.63;;;;;;;;;;6096076;23;20444;-75
2022/01/09 06:14:36;;;;;;;36.60;24.05;;;;;;;;;;6098467;23;20007;-74
2022/01/09 06:17:02;;;;;;;34.70;22.42;;;;;;;;;;6104410;23;19990;-75
2022/01/09 06:19:28;;;;;;;35.97;23.67;;;;;;;;;;6113865;23;20077;-77
2022/01/09 06:21:54;;;;;;;34.42;23.42;;;;;;;;;;6093228;23;20007;-77
2022/01/09 06:24:20;;;;;;;35.33;22.98;;;;;;;;;;6104387;23;20003;-76
2022/01/09 06:26:49;;;;;;;39.78;25.90;;;;;;;;;;6116574;23;19998;-76
2022/01/09 06:29:16;;;;;;;31.15;21.33;;;;;;;;;;6220681;23;19997;-75
2022/01/09 06:31:44;;;;;;;48.05;31.60;;;;;;;;;;6219852;23;20019;-76
2022/01/09 06:34:11;;;;;;;52.88;32.22;;;;;;;;;;6220537;23;20005;-76
2022/01/09 06:36:38;;;;;;;71.53;46.65;;;;;;;;;;6219819;23;20072;-75
2022/01/09 06:39:04;;;;;;;31.67;20.73;;;;;;;;;;6219900;23;20076;-76
2022/01/09 06:41:31;;;;;;;32.90;20.27;;;;;;;;;;6222929;23;20004;-73
2022/01/09 06:43:57;;;;;;;35.63;21.13;;;;;;;;;;6220327;23;20505;-76
2022/01/09 06:46:24;;;;;;;36.72;21.95;;;;;;;;;;6195301;23;20036;-76
2022/01/09 06:48:51;;;;;;;39.33;24.75;;;;;;;;;;6219362;23;20059;-73
2022/01/09 06:51:17;;;;;;;43.10;26.00;;;;;;;;;;6221384;23;20000;-76
2022/01/09 06:53:43;;;;;;;42.17;25.02;;;;;;;;;;6220562;23;20001;-77
2022/01/09 06:56:09;;;;;;;37.33;24.08;;;;;;;;;;6220372;23;20021;-78
2022/01/09 06:58:37;;;;;;;41.08;24.95;;;;;;;;;;6224919;23;20056;-78
2022/01/09 07:01:05;;;;;;;43.67;27.45;;;;;;;;;;6203461;23;20001;-76
2022/01/09 07:03:31;;;;;;;49.53;29.88;;;;;;;;;;6255995;23;20000;-78
2022/01/09 07:05:59;;;;;;;50.40;29.83;;;;;;;;;;6253094;23;20008;-78
2022/01/09 07:08:26;;;;;;;45.63;29.25;;;;;;;;;;6252153;23;20000;-77
2022/01/09 07:10:52;;;;;;;46.03;28.52;;;;;;;;;;6251663;23;20011;-80
2022/01/09 07:13:18;;;;;;;49.92;28.70;;;;;;;;;;6250592;23;20049;-81
2022/01/09 07:15:45;;;;;;;51.75;29.40;;;;;;;;;;6251421;23;20031;-79
2022/01/09 07:18:11;;;;;;;56.03;27.77;;;;;;;;;;6224245;23;20000;-84
2022/01/09 07:20:37;;;;;;;57.08;30.92;;;;;;;;;;6227028;23;20008;-82
2022/01/09 07:23:03;;;;;;;56.03;30.02;;;;;;;;;;6253772;23;19996;-84
2022/01/09 07:25:29;;;;;;;58.45;30.10;;;;;;;;;;6257336;23;20106;-83
2022/01/09 07:27:55;;;;;;;62.33;33.03;;;;;;;;;;6256854;23;20058;-87
2022/01/09 07:30:21;;;;;;;70.15;37.40;;;;;;;;;;6226058;23;20000;-81
2022/01/09 07:32:48;;;;;;;66.93;34.08;;;;;;;;;;6251989;23;19996;-77
2022/01/09 07:35:14;;;;;;;65.13;34.83;;;;;;;;;;6251592;23;20004;-76
2022/01/09 07:37:44;;;;;;;60.38;33.75;;;;;;;;;;6254067;22;20407;-86
2022/01/09 07:40:15;;;;;;;51.22;28.75;;;;;;;;;;6256968;22;20016;-79
2022/01/09 07:42:41;;;;;;;49.95;28.27;;;;;;;;;;6253733;23;20000;-79
2022/01/09 07:45:08;;;;;;;58.85;30.77;;;;;;;;;;6224430;23;20446;-73
2022/01/09 07:47:37;;;;;;;56.85;30.10;;;;;;;;;;6225916;23;20004;-76
2022/01/09 07:50:09;;;;;;;47.30;27.35;;;;;;;;;;6248203;23;19997;-74
2022/01/09 07:52:36;;;;;;;50.58;28.10;;;;;;;;;;6220190;23;20318;-77
2022/01/09 07:55:03;;;;;;;37.03;23.25;;;;;;;;;;6249660;23;20042;-72
2022/01/09 07:57:29;;;;;;;39.67;23.77;;;;;;;;;;6252323;23;20003;-73
2022/01/09 08:00:03;;;;;;;48.65;25.38;;;;;;;;;;6274031;22;20004;-73
2022/01/09 08:02:31;;;;;;;52.08;28.63;;;;;;;;;;6288006;22;20006;-73
2022/01/09 08:04:57;;;;;;;54.50;28.60;;;;;;;;;;6290205;22;20083;-73
2022/01/09 08:07:25;;;;;;;49.88;28.58;;;;;;;;;;6260422;22;20015;-72
2022/01/09 08:09:51;;;;;;;77.47;42.55;;;;;;;;;;6287133;22;20555;-73
2022/01/09 08:12:17;;;;;;;60.30;34.38;;;;;;;;;;6288554;22;20031;-76
2022/01/09 08:14:45;;;;;;;63.30;36.55;;;;;;;;;;6284695;22;20008;-71
2022/01/09 08:17:11;;;;;;;56.30;34.63;;;;;;;;;;6258571;22;20372;-71
2022/01/09 08:20:08;;;;;;;61.58;35.30;;;;;;;;;;6288376;22;19996;-76
2022/01/09 08:22:36;;;;;;;50.92;29.70;;;;;;;;;;6264132;22;20008;-77
2022/01/09 08:25:05;;;;;;;52.63;30.73;;;;;;;;;;6260244;22;20006;-78
2022/01/09 08:27:31;;;;;;;53.15;31.77;;;;;;;;;;6263351;22;20003;-74
2022/01/09 08:29:57;;;;;;;50.28;31.60;;;;;;;;;;6278757;22;20008;-75
2022/01/09 08:32:24;;;;;;;47.95;30.02;;;;;;;;;;6279170;22;20026;-77
2022/01/09 08:34:50;;;;;;;49.47;30.35;;;;;;;;;;6279135;22;20004;-76
2022/01/09 08:37:16;;;;;;;51.47;28.02;;;;;;;;;;6250915;22;19999;-73
2022/01/09 08:39:44;;;;;;;48.13;29.08;;;;;;;;;;6276458;22;20070;-76
2022/01/09 08:42:11;;;;;;;45.50;26.55;;;;;;;;;;6277835;22;20045;-74
2022/01/09 08:44:37;;;;;;;44.72;27.45;;;;;;;;;;6282473;22;20150;-75
2022/01/09 08:47:04;;;;;;;46.13;26.95;;;;;;;;;;6282812;22;20008;-74
2022/01/09 08:49:30;;;;;;;48.50;28.30;;;;;;;;;;6283101;22;20007;-76
2022/01/09 08:52:15;;;;;;;41.67;26.77;;;;;;;;;;6284599;22;20003;-80
2022/01/09 08:54:44;;;;;;;48.90;28.08;;;;;;;;;;6284606;22;20010;-77
2022/01/09 08:57:10;;;;;;;42.72;25.52;;;;;;;;;;6259730;22;20004;-76
2022/01/09 08:59:42;;;;;;;42.45;25.60;;;;;;;;;;6287943;22;20173;-79
2022/01/09 09:02:12;;;;;;;41.50;25.52;;;;;;;;;;6254772;22;20004;-77
2022/01/09 09:04:45;;;;;;;44.33;25.77;;;;;;;;;;6286888;22;20004;-76
2022/01/09 09:07:35;;;;;;;40.08;23.42;;;;;;;;;;6289672;22;20003;-75
2022/01/09 09:10:07;;;;;;;39.08;22.95;;;;;;;;;;6290189;22;20034;-77
2022/01/09 09:12:57;;;;;;;32.70;20.50;;;;;;;;;;6241876;22;19987;-76
2022/01/09 09:15:24;;;;;;;30.27;19.30;;;;;;;;;;6291930;22;20030;-75
2022/01/09 09:17:51;;;;;;;30.25;19.35;;;;;;;;;;6295520;22;20004;-74
2022/01/09 09:20:17;;;;;;;29.70;19.10;;;;;;;;;;6293274;22;19999;-74
2022/01/09 09:22:45;;;;;;;30.55;19.35;;;;;;;;;;6295777;22;20016;-73
2022/01/09 09:25:14;;;;;;;28.48;18.42;;;;;;;;;;6296626;22;20004;-72
2022/01/09 09:27:40;;;;;;;31.52;18.35;;;;;;;;;;6282136;22;20075;-76
2022/01/09 09:30:18;;;;;;;34.30;21.48;;;;;;;;;;6294876;22;20027;-78
2022/01/09 09:33:03;;;;;;;29.20;18.75;;;;;;;;;;6269750;22;20052;-78
2022/01/09 09:35:30;;;;;;;32.38;20.33;;;;;;;;;;6189636;22;20026;-76
2022/01/09 09:38:05;;;;;;;36.88;22.38;;;;;;;;;;6288161;22;20143;-78
2022/01/09 09:40:49;;;;;;;31.95;20.05;;;;;;;;;;6279305;22;20022;-74
2022/01/09 09:44:10;;;;;;;30.73;20.30;;;;;;;;;;6254417;22;19999;-80
2022/01/09 09:46:37;;;;;;;31.48;19.83;;;;;;;;;;6201248;23;20021;-76
2022/01/09 09:49:05;;;;;;;31.80;19.83;;;;;;;;;;6165685;23;20009;-75
2022/01/09 09:51:32;;;;;;;34.55;20.92;;;;;;;;;;6220667;23;20008;-78
2022/01/09 09:53:59;;;;;;;32.67;20.17;;;;;;;;;;6226240;23;20011;-76
2022/01/09 09:59:12;;;;;;;34.90;21.38;;;;;;;;;;6263429;22;20015;-77
2022/01/09 10:01:39;;;;;;;34.03;21.15;;;;;;;;;;6262380;23;20000;-76
2022/01/09 10:04:10;;;;;;;35.33;21.52;;;;;;;;;;6232418;23;20001;-77
2022/01/09 10:06:45;;;;;;;31.42;18.98;;;;;;;;;;6238670;23;20020;-75
2022/01/09 10:09:28;;;;;;;29.27;18.83;;;;;;;;;;6242274;23;20030;-75
2022/01/09 10:12:04;;;;;;;35.08;21.17;;;;;;;;;;6231719;23;20004;-77
2022/01/09 10:14:50;;;;;;;30.83;19.65;;;;;;;;;;6268476;23;19984;-78
2022/01/09 10:17:20;;;;;;;35.25;22.77;;;;;;;;;;6201530;23;20001;-77
2022/01/09 10:20:09;;;;;;;22.90;15.85;;;;;;;;;;6199491;23;20017;-77
2022/01/09 10:22:44;;;;;;;28.75;15.98;;;;;;;;;;6197224;23;20001;-77
2022/01/09 10:25:28;;;;;;;23.98;15.75;;;;;;;;;;6201300;23;20009;-78
2022/01/09 10:28:20;;;;;;;29.60;18.20;;;;;;;;;;6199464;23;20036;-75
2022/01/09 10:30:51;;;;;;;42.53;26.10;;;;;;;;;;6199425;23;20055;-77
2022/01/09 10:34:00;;;;;;;28.65;18.48;;;;;;;;;;6201007;23;20021;-78
2022/01/09 10:36:54;;;;;;;27.88;17.88;;;;;;;;;;6147329;23;20001;-78
2022/01/09 10:39:44;;;;;;;33.55;20.60;;;;;;;;;;6061136;23;20018;-77
2022/01/09 10:42:13;;;;;;;36.08;23.02;;;;;;;;;;6060442;23;20010;-78
2022/01/09 10:44:44;;;;;;;37.20;23.27;;;;;;;;;;6062197;23;20091;-78
2022/01/09 10:47:38;;;;;;;41.22;26.50;;;;;;;;;;6085026;23;20334;-79
2022/01/09 10:50:05;;;;;;;49.70;29.10;;;;;;;;;;6066594;23;20011;-74
2022/01/09 10:52:36;;;;;;;36.42;24.67;;;;;;;;;;6065422;23;20143;-75
2022/01/09 10:55:07;;;;;;;47.38;27.95;;;;;;;;;;6071564;23;20014;-77
2022/01/09 10:57:37;;;;;;;44.33;27.50;;;;;;;;;;6051724;23;20026;-79
2022/01/09 11:00:11;;;;;;;42.17;26.10;;;;;;;;;;6084707;23;20042;-78
2022/01/09 11:02:45;;;;;;;44.67;27.85;;;;;;;;;;6060612;23;20377;-77
2022/01/09 11:05:19;;;;;;;46.90;29.70;;;;;;;;;;6083068;23;20019;-79
2022/01/09 11:07:51;;;;;;;42.20;27.92;;;;;;;;;;6077569;23;20047;-76
2022/01/09 11:10:23;;;;;;;39.95;24.83;;;;;;;;;;6050577;23;20007;-78
2022/01/09 11:12:52;;;;;;;38.53;25.13;;;;;;;;;;6138911;23;20013;-76
2022/01/09 11:15:22;;;;;;;36.85;23.08;;;;;;;;;;6182294;23;20014;-76
2022/01/09 11:17:48;;;;;;;35.45;23.48;;;;;;;;;;6256351;23;20452;-74
2022/01/09 11:20:37;;;;;;;34.15;20.60;;;;;;;;;;6261393;23;20000;-79
2022/01/09 11:23:26;;;;;;;38.47;23.85;;;;;;;;;;6239203;23;20019;-74
2022/01/09 11:26:05;;;;;;;37.33;24.05;;;;;;;;;;6247585;23;20430;-73
2022/01/09 11:28:35;;;;;;;26.65;18.08;;;;;;;;;;6229022;23;20010;-77
2022/01/09 11:31:05;;;;;;;35.08;22.38;;;;;;;;;;6247311;23;20001;-77
2022/01/09 11:33:42;;;;;;;34.90;22.27;;;;;;;;;;6232250;23;20004;-74
2022/01/09 11:36:34;;;;;;;37.00;25.60;;;;;;;;;;6257603;23;20000;-73
2022/01/09 11:39:12;;;;;;;42.13;27.90;;;;;;;;;;6263920;23;20001;-72
2022/01/09 11:41:44;;;;;;;50.83;31.50;;;;;;;;;;6264635;23;19996;-77
2022/01/09 11:44:11;;;;;;;45.65;30.98;;;;;;;;;;6258870;23;19988;-76
2022/01/09 11:46:57;;;;;;;38.20;23.30;;;;;;;;;;6261120;23;20007;-77
2022/01/09 11:49:23;;;;;;;48.97;28.13;;;;;;;;;;6252684;23;20051;-73
2022/01/09 11:51:55;;;;;;;44.70;26.77;;;;;;;;;;6258650;23;19991;-76
2022/01/09 11:54:23;;;;;;;48.47;31.92;;;;;;;;;;6258762;23;20019;-73
2022/01/09 11:56:51;;;;;;;46.78;28.65;;;;;;;;;;6208272;23;1211887;-73
2022/01/09 11:59:19;;;;;;;46.20;30.77;;;;;;;;;;6258584;22;20004;-75
2022/01/09 12:01:48;;;;;;;43.50;28.45;;;;;;;;;;6257578;23;20012;-74
2022/01/09 12:05:08;;;;;;;43.80;28.33;;;;;;;;;;6258821;23;20075;-76
2022/01/09 12:07:34;;;;;;;52.22;32.42;;;;;;;;;;6114209;23;20336;-73
2022/01/09 12:10:01;;;;;;;40.17;26.52;;;;;;;;;;6138148;23;20013;-72
2022/01/09 12:12:33;;;;;;;44.20;30.35;;;;;;;;;;6114524;23;20090;-73
2022/01/09 12:15:04;;;;;;;40.45;27.90;;;;;;;;;;6133227;23;20037;-78
2022/01/09 12:17:37;;;;;;;48.65;31.20;;;;;;;;;;6131412;23;20341;-77
2022/01/09 12:20:07;;;;;;;45.97;29.00;;;;;;;;;;6133887;23;20486;-76
2022/01/09 12:22:51;;;;;;;44.60;29.92;;;;;;;;;;6126221;23;20011;-77
2022/01/09 12:25:22;;;;;;;44.72;27.90;;;;;;;;;;6133778;23;20018;-77
2022/01/09 12:27:55;;;;;;;39.22;25.75;;;;;;;;;;6129394;23;20077;-75
2022/01/09 12:30:44;;;;;;;42.63;28.27;;;;;;;;;;6128739;23;20030;-76
2022/01/09 12:33:10;;;;;;;45.47;29.60;;;;;;;;;;6134908;23;20006;-75
2022/01/09 12:35:38;;;;;;;45.28;29.17;;;;;;;;;;6126339;23;20009;-74
2022/01/09 12:38:06;;;;;;;34.67;23.13;;;;;;;;;;6186127;23;20442;-73
2022/01/09 12:40:34;;;;;;;33.72;23.08;;;;;;;;;;6258147;23;19988;-75
2022/01/09 12:43:01;;;;;;;32.58;22.67;;;;;;;;;;6262721;23;19999;-77
2022/01/09 12:45:29;;;;;;;33.78;22.70;;;;;;;;;;6261100;23;19984;-74
2022/01/09 12:47:56;;;;;;;38.22;23.27;;;;;;;;;;6255802;23;20068;-75
2022/01/09 12:50:29;;;;;;;36.22;23.25;;;;;;;;;;6261362;23;20000;-76
2022/01/09 12:53:14;;;;;;;34.97;24.30;;;;;;;;;;6260357;23;20004;-72
2022/01/09 12:55:55;;;;;;;38.97;25.85;;;;;;;;;;6251000;23;20000;-77
2022/01/09 12:58:23;;;;;;;41.47;27.92;;;;;;;;;;6251890;23;20070;-77
2022/01/09 13:00:49;;;;;;;42.45;28.33;;;;;;;;;;6250440;22;20026;-74
2022/01/09 13:03:18;;;;;;;40.05;27.25;;;;;;;;;;6251048;23;20001;-73
2022/01/09 13:05:52;;;;;;;39.85;27.40;;;;;;;;;;6251072;23;20072;-76
2022/01/09 13:08:19;;;;;;;35.28;23.13;;;;;;;;;;6248657;23;20000;-77
2022/01/09 13:10:45;;;;;;;30.58;19.25;;;;;;;;;;6245382;23;20000;-74
2022/01/09 13:13:13;;;;;;;31.52;21.90;;;;;;;;;;6217975;23;20026;-74
2022/01/09 13:15:40;;;;;;;32.90;23.25;;;;;;;;;;6247730;23;20000;-74
2022/01/09 13:18:06;;;;;;;39.22;26.13;;;;;;;;;;6245722;23;20032;-74
2022/01/09 13:20:33;;;;;;;40.78;26.30;;;;;;;;;;6253704;23;19977;-73
2022/01/09 13:23:08;;;;;;;41.55;25.90;;;;;;;;;;6223313;23;20004;-76
2022/01/09 13:25:42;;;;;;;37.83;25.92;;;;;;;;;;6253196;23;20000;-75
2022/01/09 13:28:17;;;;;;;40.92;25.45;;;;;;;;;;6244206;23;20450;-77
2022/01/09 13:30:43;;;;;;;40.35;25.95;;;;;;;;;;6254250;23;20004;-77
2022/01/09 13:33:25;;;;;;;35.53;25.30;;;;;;;;;;6253485;23;20008;-75
2022/01/09 13:35:51;;;;;;;44.65;29.73;;;;;;;;;;6264709;23;20011;-77
2022/01/09 13:38:25;;;;;;;42.05;26.50;;;;;;;;;;6263320;23;20004;-74
2022/01/09 13:40:55;;;;;;;31.50;21.20;;;;;;;;;;6255755;23;20004;-74
2022/01/09 13:43:21;;;;;;;41.88;27.35;;;;;;;;;;6253300;23;20441;-73
2022/01/09 13:45:47;;;;;;;36.90;25.70;;;;;;;;;;6248355;23;20000;-77
2022/01/09 13:48:13;;;;;;;36.25;25.90;;;;;;;;;;6247896;23;20028;-73
2022/01/09 13:50:46;;;;;;;32.67;22.50;;;;;;;;;;6220706;23;20000;-76
2022/01/09 13:53:16;;;;;;;34.05;22.52;;;;;;;;;;6267025;23;20066;-74
2022/01/09 13:55:42;;;;;;;35.40;24.02;;;;;;;;;;6227025;23;20024;-75
2022/01/09 13:58:17;;;;;;;34.75;23.15;;;;;;;;;;6254979;23;20068;-78
2022/01/09 14:00:45;;;;;;;31.67;20.60;;;;;;;;;;6258523;22;20007;-75
2022/01/09 14:03:11;;;;;;;32.65;19.30;;;;;;;;;;6233267;23;19984;-75
2022/01/09 14:05:37;;;;;;;30.80;20.77;;;;;;;;;;6265094;23;20470;-75
2022/01/09 14:08:04;;;;;;;28.00;19.05;;;;;;;;;;6232965;23;20016;-78
2022/01/09 14:10:50;;;;;;;28.83;19.17;;;;;;;;;;6264985;23;20000;-79
2022/01/09 14:13:29;;;;;;;22.55;14.98;;;;;;;;;;6197402;22;20445;-80
2022/01/09 14:16:16;;;;;;;20.30;14.30;;;;;;;;;;6083021;23;20015;-75
2022/01/09 14:18:55;;;;;;;20.25;14.55;;;;;;;;;;6088344;23;20010;-75
2022/01/09 14:21:24;;;;;;;23.65;16.95;;;;;;;;;;6081085;23;20015;-76
2022/01/09 14:23:50;;;;;;;25.42;17.20;;;;;;;;;;6083764;23;20062;-75
2022/01/09 14:26:25;;;;;;;27.52;18.00;;;;;;;;;;6078499;23;20019;-75
2022/01/09 14:28:52;;;;;;;22.35;14.68;;;;;;;;;;6077539;23;20038;-74
2022/01/09 14:31:18;;;;;;;28.90;18.63;;;;;;;;;;6078972;23;20010;-74
2022/01/09 14:33:46;;;;;;;28.83;21.00;;;;;;;;;;6079732;23;20021;-77
2022/01/09 14:36:20;;;;;;;21.17;14.73;;;;;;;;;;6082980;23;20386;-73
2022/01/09 14:38:56;;;;;;;20.08;14.45;;;;;;;;;;6085890;23;20003;-76
2022/01/09 14:41:26;;;;;;;21.85;16.15;;;;;;;;;;6086696;23;20006;-77
2022/01/09 14:43:52;;;;;;;20.17;14.15;;;;;;;;;;6086567;23;20071;-76
2022/01/09 14:46:18;;;;;;;20.17;14.77;;;;;;;;;;6083657;23;20011;-76
2022/01/09 14:48:45;;;;;;;23.15;15.00;;;;;;;;;;6083993;23;20018;-76
2022/01/09 14:51:14;;;;;;;18.42;12.15;;;;;;;;;;6082533;23;20007;-74
2022/01/09 14:53:42;;;;;;;21.00;14.32;;;;;;;;;;6153765;23;20005;-73
2022/01/09 14:56:08;;;;;;;18.95;13.85;;;;;;;;;;6197838;23;20449;-74
2022/01/09 14:58:34;;;;;;;21.17;14.90;;;;;;;;;;6203447;23;20009;-72
2022/01/09 15:01:01;;;;;;;21.38;14.35;;;;;;;;;;6173690;23;20783;-73
2022/01/09 15:03:27;;;;;;;19.98;14.27;;;;;;;;;;6172255;23;20009;-76
2022/01/09 15:05:55;;;;;;;21.15;14.88;;;;;;;;;;6200303;23;20089;-79
2022/01/09 15:08:22;;;;;;;20.60;15.15;;;;;;;;;;6201568;23;20001;-74
2022/01/09 15:10:48;;;;;;;23.10;14.98;;;;;;;;;;6159536;23;20009;-75
2022/01/09 15:13:24;;;;;;;23.08;16.58;;;;;;;;;;6183760;23;20177;-76
2022/01/09 15:15:50;;;;;;;21.48;15.52;;;;;;;;;;6185353;23;20033;-76
2022/01/09 15:18:24;;;;;;;23.88;16.52;;;;;;;;;;6195349;23;20083;-82
2022/01/09 15:20:50;;;;;;;22.10;14.95;;;;;;;;;;6196057;23;20005;-75
2022/01/09 15:23:16;;;;;;;27.63;17.92;;;;;;;;;;6199000;23;20336;-72
2022/01/09 15:25:45;;;;;;;17.23;12.52;;;;;;;;;;6195402;23;20138;-72
2022/01/09 15:28:12;;;;;;;27.25;17.13;;;;;;;;;;6246955;23;20012;-73
2022/01/09 15:30:40;;;;;;;25.38;16.00;;;;;;;;;;6248027;23;20010;-72
2022/01/09 15:33:07;;;;;;;28.65;18.85;;;;;;;;;;6248164;23;20004;-75
2022/01/09 15:35:35;;;;;;;29.05;19.35;;;;;;;;;;6251931;23;20027;-74
2022/01/09 15:38:04;;;;;;;26.90;18.70;;;;;;;;;;6257263;23;20004;-76
2022/01/09 15:40:34;;;;;;;26.25;17.38;;;;;;;;;;6259869;23;19980;-75
2022/01/09 15:43:28;;;;;;;25.75;16.48;;;;;;;;;;6234470;23;20000;-77
2022/01/09 15:46:11;;;;;;;29.05;20.02;;;;;;;;;;6232376;23;20005;-78
2022/01/09 15:49:00;;;;;;;28.13;20.33;;;;;;;;;;6186359;23;20003;-77
2022/01/09 15:51:40;;;;;;;40.05;24.02;;;;;;;;;;6256808;23;20000;-81
2022/01/09 15:54:06;;;;;;;42.97;23.90;;;;;;;;;;6222089;23;20438;-82
2022/01/09 15:56:32;;;;;;;47.08;26.85;;;;;;;;;;6252113;23;20456;-76